• location
  • image
mod_vvisit_countermod_vvisit_countermod_vvisit_countermod_vvisit_countermod_vvisit_countermod_vvisit_counter
mod_vvisit_counterToday644
mod_vvisit_counterYesterday605
mod_vvisit_counterThis week3664
mod_vvisit_counterLast week4055
mod_vvisit_counterThis month15551
mod_vvisit_counterLast month26640
mod_vvisit_counterAll days680549

We have: 38 guests, 2 bots online
Your IP: 54.161.25.213
 , 
Today: Jun 24, 2017
Airport / Company / List of services

List of services

  

Services of Siauliai International Airport:

 

Leading (follow me)

Ground services

Aircraft loading/unloading

Aircraft parking

Aircraft security

Aircraft fuel supply

Passenger baggage service

Business class passenger service

Submission of information to passengers

Serving meals to passengers and crew

Additional services for aircraft crewmembers

Aviation Security

Dining Cafe

First medical aid

Hotel reservations

Transporting crew to/from the city

Taxi booking 

Border procedures

Customs procedures

 

Today

Saturday, 24 June 2017

Weather Forecast

Siauliai °C
   

Aviation Weather Forecast

[source: ADDS]
METAR
EYSA 240950Z 22008KT 170V270 9999 BKN025 15/11 Q1005 BLU TEMPO SHRA SCT015CB BKN025 WHT =
TAF
TAF EYSA 240800Z 2409/2418 21014KT 7000 SCT010 BKN025 TEMPO 2409/2412 SCT015CB TEMPO 2412/2418 SHRA BKN015CB =
SR / SS: 01:49 / 19:11 UTC (EYSA 2017-06-24)

Search

Who's Online

We have 32 guests online

tic logo en